sensor_id;sensor_type;location;lat;lon;timestamp;P1;durP1;ratioP1;P2;durP2;ratioP2
43678;SDS011;29279;50.858;4.392;2023-11-21T00:01:56;72.53;;;31.98;;
43678;SDS011;29279;50.858;4.392;2023-11-21T00:04:22;76.75;;;32.67;;
43678;SDS011;29279;50.858;4.392;2023-11-21T00:06:48;77.30;;;33.70;;
43678;SDS011;29279;50.858;4.392;2023-11-21T00:09:14;77.28;;;35.25;;
43678;SDS011;29279;50.858;4.392;2023-11-21T00:11:40;65.50;;;32.10;;
43678;SDS011;29279;50.858;4.392;2023-11-21T00:14:07;70.32;;;32.90;;
43678;SDS011;29279;50.858;4.392;2023-11-21T00:16:33;65.15;;;31.33;;
43678;SDS011;29279;50.858;4.392;2023-11-21T00:18:59;80.50;;;32.55;;
43678;SDS011;29279;50.858;4.392;2023-11-21T00:21:25;74.75;;;32.13;;
43678;SDS011;29279;50.858;4.392;2023-11-21T00:23:50;74.45;;;31.95;;
43678;SDS011;29279;50.858;4.392;2023-11-21T00:26:16;74.47;;;31.50;;
43678;SDS011;29279;50.858;4.392;2023-11-21T00:28:42;68.75;;;30.95;;
43678;SDS011;29279;50.858;4.392;2023-11-21T00:31:08;65.55;;;32.35;;
43678;SDS011;29279;50.858;4.392;2023-11-21T00:33:33;73.55;;;30.95;;
43678;SDS011;29279;50.858;4.392;2023-11-21T00:35:59;74.43;;;32.22;;
43678;SDS011;29279;50.858;4.392;2023-11-21T00:38:25;69.97;;;30.90;;
43678;SDS011;29279;50.858;4.392;2023-11-21T00:40:52;82.93;;;33.17;;
43678;SDS011;29279;50.858;4.392;2023-11-21T00:43:21;68.15;;;31.98;;
43678;SDS011;29279;50.858;4.392;2023-11-21T00:45:47;77.35;;;32.58;;
43678;SDS011;29279;50.858;4.392;2023-11-21T00:48:14;75.30;;;33.15;;
43678;SDS011;29279;50.858;4.392;2023-11-21T00:50:40;71.93;;;32.90;;
43678;SDS011;29279;50.858;4.392;2023-11-21T00:53:05;82.85;;;34.00;;
43678;SDS011;29279;50.858;4.392;2023-11-21T00:55:32;80.88;;;34.88;;
43678;SDS011;29279;50.858;4.392;2023-11-21T00:57:58;79.32;;;35.30;;
43678;SDS011;29279;50.858;4.392;2023-11-21T01:00:24;95.28;;;36.95;;
43678;SDS011;29279;50.858;4.392;2023-11-21T01:02:51;82.55;;;35.45;;
43678;SDS011;29279;50.858;4.392;2023-11-21T01:05:17;92.60;;;36.58;;
43678;SDS011;29279;50.858;4.392;2023-11-21T01:07:42;89.15;;;35.35;;
43678;SDS011;29279;50.858;4.392;2023-11-21T01:10:08;84.78;;;36.53;;
43678;SDS011;29279;50.858;4.392;2023-11-21T01:12:35;85.13;;;34.90;;
43678;SDS011;29279;50.858;4.392;2023-11-21T01:15:03;82.60;;;34.97;;
43678;SDS011;29279;50.858;4.392;2023-11-21T01:17:32;81.07;;;34.50;;
43678;SDS011;29279;50.858;4.392;2023-11-21T01:19:59;87.60;;;36.50;;
43678;SDS011;29279;50.858;4.392;2023-11-21T01:22:26;82.25;;;34.10;;
43678;SDS011;29279;50.858;4.392;2023-11-21T01:24:53;76.40;;;34.42;;
43678;SDS011;29279;50.858;4.392;2023-11-21T01:27:19;74.97;;;33.03;;
43678;SDS011;29279;50.858;4.392;2023-11-21T01:29:45;76.53;;;33.67;;
43678;SDS011;29279;50.858;4.392;2023-11-21T01:32:11;74.20;;;34.97;;
43678;SDS011;29279;50.858;4.392;2023-11-21T01:34:36;68.00;;;34.03;;
43678;SDS011;29279;50.858;4.392;2023-11-21T01:37:02;83.47;;;35.25;;
43678;SDS011;29279;50.858;4.392;2023-11-21T01:39:30;78.53;;;33.97;;
43678;SDS011;29279;50.858;4.392;2023-11-21T01:41:56;77.10;;;34.97;;
43678;SDS011;29279;50.858;4.392;2023-11-21T01:44:23;71.68;;;32.67;;
43678;SDS011;29279;50.858;4.392;2023-11-21T01:46:49;66.55;;;32.70;;
43678;SDS011;29279;50.858;4.392;2023-11-21T01:49:15;73.38;;;32.97;;
43678;SDS011;29279;50.858;4.392;2023-11-21T01:51:43;62.50;;;30.88;;
43678;SDS011;29279;50.858;4.392;2023-11-21T01:54:11;65.95;;;31.15;;
43678;SDS011;29279;50.858;4.392;2023-11-21T01:56:37;59.20;;;30.83;;
43678;SDS011;29279;50.858;4.392;2023-11-21T01:59:04;62.38;;;29.40;;
43678;SDS011;29279;50.858;4.392;2023-11-21T02:01:32;60.10;;;27.88;;
43678;SDS011;29279;50.858;4.392;2023-11-21T02:03:58;55.95;;;28.67;;
43678;SDS011;29279;50.858;4.392;2023-11-21T02:06:24;57.80;;;27.42;;
43678;SDS011;29279;50.858;4.392;2023-11-21T02:08:50;59.45;;;29.08;;
43678;SDS011;29279;50.858;4.392;2023-11-21T02:11:16;67.30;;;27.27;;
43678;SDS011;29279;50.858;4.392;2023-11-21T02:13:44;53.53;;;26.63;;
43678;SDS011;29279;50.858;4.392;2023-11-21T02:16:10;50.53;;;26.13;;
43678;SDS011;29279;50.858;4.392;2023-11-21T02:18:38;59.75;;;26.20;;
43678;SDS011;29279;50.858;4.392;2023-11-21T02:21:04;56.83;;;26.52;;
43678;SDS011;29279;50.858;4.392;2023-11-21T02:23:30;63.63;;;26.42;;
43678;SDS011;29279;50.858;4.392;2023-11-21T02:25:56;50.50;;;24.05;;
43678;SDS011;29279;50.858;4.392;2023-11-21T02:28:21;56.97;;;23.88;;
43678;SDS011;29279;50.858;4.392;2023-11-21T02:30:51;49.80;;;23.90;;
43678;SDS011;29279;50.858;4.392;2023-11-21T02:33:21;53.75;;;25.60;;
43678;SDS011;29279;50.858;4.392;2023-11-21T02:35:47;54.80;;;25.02;;
43678;SDS011;29279;50.858;4.392;2023-11-21T02:38:13;55.33;;;26.30;;
43678;SDS011;29279;50.858;4.392;2023-11-21T02:40:40;64.20;;;25.45;;
43678;SDS011;29279;50.858;4.392;2023-11-21T02:43:07;55.10;;;24.88;;
43678;SDS011;29279;50.858;4.392;2023-11-21T02:45:34;49.97;;;25.17;;
43678;SDS011;29279;50.858;4.392;2023-11-21T02:47:59;59.15;;;24.48;;
43678;SDS011;29279;50.858;4.392;2023-11-21T02:50:25;48.17;;;23.95;;
43678;SDS011;29279;50.858;4.392;2023-11-21T02:52:50;55.90;;;23.05;;
43678;SDS011;29279;50.858;4.392;2023-11-21T02:55:16;50.45;;;25.02;;
43678;SDS011;29279;50.858;4.392;2023-11-21T02:57:42;50.85;;;23.15;;
43678;SDS011;29279;50.858;4.392;2023-11-21T03:00:08;48.47;;;21.30;;
43678;SDS011;29279;50.858;4.392;2023-11-21T03:02:39;45.10;;;19.35;;
43678;SDS011;29279;50.858;4.392;2023-11-21T03:05:06;49.13;;;21.58;;
43678;SDS011;29279;50.858;4.392;2023-11-21T03:07:33;50.35;;;21.20;;
43678;SDS011;29279;50.858;4.392;2023-11-21T03:10:00;43.00;;;20.25;;
43678;SDS011;29279;50.858;4.392;2023-11-21T03:12:25;46.92;;;21.65;;
43678;SDS011;29279;50.858;4.392;2023-11-21T03:14:51;44.53;;;21.15;;
43678;SDS011;29279;50.858;4.392;2023-11-21T03:17:17;40.35;;;20.05;;
43678;SDS011;29279;50.858;4.392;2023-11-21T03:19:42;35.80;;;18.70;;
43678;SDS011;29279;50.858;4.392;2023-11-21T03:22:08;35.85;;;18.05;;
43678;SDS011;29279;50.858;4.392;2023-11-21T03:24:34;33.85;;;16.92;;
43678;SDS011;29279;50.858;4.392;2023-11-21T03:27:00;37.42;;;17.50;;
43678;SDS011;29279;50.858;4.392;2023-11-21T03:29:26;34.78;;;16.38;;
43678;SDS011;29279;50.858;4.392;2023-11-21T03:31:51;32.78;;;16.50;;
43678;SDS011;29279;50.858;4.392;2023-11-21T03:34:26;34.80;;;17.30;;
43678;SDS011;29279;50.858;4.392;2023-11-21T03:36:52;37.22;;;17.73;;
43678;SDS011;29279;50.858;4.392;2023-11-21T03:39:22;38.50;;;17.38;;
43678;SDS011;29279;50.858;4.392;2023-11-21T03:41:48;33.40;;;16.25;;
43678;SDS011;29279;50.858;4.392;2023-11-21T03:44:14;32.15;;;17.02;;
43678;SDS011;29279;50.858;4.392;2023-11-21T03:46:40;41.53;;;18.35;;
43678;SDS011;29279;50.858;4.392;2023-11-21T03:49:05;40.53;;;19.60;;
43678;SDS011;29279;50.858;4.392;2023-11-21T03:51:32;41.70;;;20.52;;
43678;SDS011;29279;50.858;4.392;2023-11-21T03:53:59;43.80;;;21.10;;
43678;SDS011;29279;50.858;4.392;2023-11-21T03:56:24;47.05;;;22.77;;
43678;SDS011;29279;50.858;4.392;2023-11-21T03:58:50;49.70;;;23.25;;
43678;SDS011;29279;50.858;4.392;2023-11-21T04:01:20;50.38;;;25.30;;
43678;SDS011;29279;50.858;4.392;2023-11-21T04:03:49;53.00;;;26.10;;
43678;SDS011;29279;50.858;4.392;2023-11-21T04:06:15;50.05;;;24.75;;
43678;SDS011;29279;50.858;4.392;2023-11-21T04:08:42;56.60;;;25.00;;
43678;SDS011;29279;50.858;4.392;2023-11-21T04:11:09;61.10;;;27.80;;
43678;SDS011;29279;50.858;4.392;2023-11-21T04:13:37;53.40;;;24.85;;
43678;SDS011;29279;50.858;4.392;2023-11-21T04:16:04;52.88;;;25.75;;
43678;SDS011;29279;50.858;4.392;2023-11-21T04:18:34;62.03;;;26.15;;
43678;SDS011;29279;50.858;4.392;2023-11-21T04:21:01;56.38;;;26.77;;
43678;SDS011;29279;50.858;4.392;2023-11-21T04:23:28;59.42;;;29.08;;
43678;SDS011;29279;50.858;4.392;2023-11-21T04:25:54;56.00;;;27.60;;
43678;SDS011;29279;50.858;4.392;2023-11-21T04:28:22;61.20;;;30.17;;
43678;SDS011;29279;50.858;4.392;2023-11-21T04:30:48;58.63;;;29.45;;
43678;SDS011;29279;50.858;4.392;2023-11-21T04:33:14;53.63;;;27.15;;
43678;SDS011;29279;50.858;4.392;2023-11-21T04:35:39;61.88;;;29.17;;
43678;SDS011;29279;50.858;4.392;2023-11-21T04:38:05;56.35;;;27.83;;
43678;SDS011;29279;50.858;4.392;2023-11-21T04:40:30;53.72;;;28.48;;
43678;SDS011;29279;50.858;4.392;2023-11-21T04:42:56;62.97;;;27.95;;
43678;SDS011;29279;50.858;4.392;2023-11-21T04:45:22;59.08;;;26.67;;
43678;SDS011;29279;50.858;4.392;2023-11-21T04:47:48;51.28;;;26.83;;
43678;SDS011;29279;50.858;4.392;2023-11-21T04:50:13;54.00;;;27.65;;
43678;SDS011;29279;50.858;4.392;2023-11-21T04:52:39;52.42;;;27.60;;
43678;SDS011;29279;50.858;4.392;2023-11-21T04:55:04;60.70;;;27.52;;
43678;SDS011;29279;50.858;4.392;2023-11-21T04:57:34;56.78;;;27.52;;
43678;SDS011;29279;50.858;4.392;2023-11-21T05:00:03;52.05;;;28.38;;
43678;SDS011;29279;50.858;4.392;2023-11-21T05:02:31;55.83;;;27.67;;
43678;SDS011;29279;50.858;4.392;2023-11-21T05:04:59;62.58;;;29.05;;
43678;SDS011;29279;50.858;4.392;2023-11-21T05:07:25;56.92;;;28.48;;
43678;SDS011;29279;50.858;4.392;2023-11-21T05:09:54;58.95;;;29.67;;
43678;SDS011;29279;50.858;4.392;2023-11-21T05:12:21;60.97;;;28.50;;
43678;SDS011;29279;50.858;4.392;2023-11-21T05:14:48;51.65;;;27.73;;
43678;SDS011;29279;50.858;4.392;2023-11-21T05:17:14;64.22;;;30.13;;
43678;SDS011;29279;50.858;4.392;2023-11-21T05:19:40;64.63;;;29.80;;
43678;SDS011;29279;50.858;4.392;2023-11-21T05:22:06;60.88;;;30.05;;
43678;SDS011;29279;50.858;4.392;2023-11-21T05:24:33;62.20;;;30.17;;
43678;SDS011;29279;50.858;4.392;2023-11-21T05:26:58;65.55;;;30.92;;
43678;SDS011;29279;50.858;4.392;2023-11-21T05:29:24;63.42;;;31.00;;
43678;SDS011;29279;50.858;4.392;2023-11-21T05:31:50;63.97;;;30.98;;
43678;SDS011;29279;50.858;4.392;2023-11-21T05:34:16;56.95;;;29.13;;
43678;SDS011;29279;50.858;4.392;2023-11-21T05:36:45;58.85;;;28.45;;
43678;SDS011;29279;50.858;4.392;2023-11-21T05:39:11;63.50;;;29.45;;
43678;SDS011;29279;50.858;4.392;2023-11-21T05:41:37;60.65;;;29.45;;
43678;SDS011;29279;50.858;4.392;2023-11-21T05:44:02;58.92;;;30.17;;
43678;SDS011;29279;50.858;4.392;2023-11-21T05:46:28;68.93;;;31.42;;
43678;SDS011;29279;50.858;4.392;2023-11-21T05:48:54;58.53;;;31.73;;
43678;SDS011;29279;50.858;4.392;2023-11-21T05:51:20;58.92;;;28.67;;
43678;SDS011;29279;50.858;4.392;2023-11-21T05:53:45;57.08;;;28.83;;
43678;SDS011;29279;50.858;4.392;2023-11-21T05:56:11;54.65;;;27.60;;
43678;SDS011;29279;50.858;4.392;2023-11-21T05:58:38;55.22;;;28.25;;
43678;SDS011;29279;50.858;4.392;2023-11-21T06:01:05;53.38;;;27.17;;
43678;SDS011;29279;50.858;4.392;2023-11-21T06:03:37;66.85;;;30.05;;
43678;SDS011;29279;50.858;4.392;2023-11-21T06:06:03;55.72;;;29.20;;
43678;SDS011;29279;50.858;4.392;2023-11-21T06:08:30;67.22;;;29.58;;
43678;SDS011;29279;50.858;4.392;2023-11-21T06:10:55;68.68;;;29.90;;
43678;SDS011;29279;50.858;4.392;2023-11-21T06:13:21;66.97;;;30.73;;
43678;SDS011;29279;50.858;4.392;2023-11-21T06:15:49;61.17;;;28.40;;
43678;SDS011;29279;50.858;4.392;2023-11-21T06:18:17;71.78;;;28.48;;
43678;SDS011;29279;50.858;4.392;2023-11-21T06:20:45;57.08;;;27.80;;
43678;SDS011;29279;50.858;4.392;2023-11-21T06:23:11;54.38;;;27.45;;
43678;SDS011;29279;50.858;4.392;2023-11-21T06:25:36;52.83;;;28.30;;
43678;SDS011;29279;50.858;4.392;2023-11-21T06:28:02;56.33;;;27.85;;
43678;SDS011;29279;50.858;4.392;2023-11-21T06:30:28;63.83;;;29.38;;
43678;SDS011;29279;50.858;4.392;2023-11-21T06:32:59;58.17;;;29.17;;
43678;SDS011;29279;50.858;4.392;2023-11-21T06:35:24;58.83;;;29.85;;
43678;SDS011;29279;50.858;4.392;2023-11-21T06:37:52;59.75;;;29.92;;
43678;SDS011;29279;50.858;4.392;2023-11-21T06:40:18;57.22;;;29.38;;
43678;SDS011;29279;50.858;4.392;2023-11-21T06:42:44;63.35;;;30.70;;
43678;SDS011;29279;50.858;4.392;2023-11-21T06:45:11;67.00;;;32.72;;
43678;SDS011;29279;50.858;4.392;2023-11-21T06:47:38;65.82;;;31.05;;
43678;SDS011;29279;50.858;4.392;2023-11-21T06:50:04;60.22;;;31.17;;
43678;SDS011;29279;50.858;4.392;2023-11-21T06:52:31;61.25;;;31.98;;
43678;SDS011;29279;50.858;4.392;2023-11-21T06:54:57;60.50;;;31.08;;
43678;SDS011;29279;50.858;4.392;2023-11-21T06:57:23;64.70;;;31.02;;
43678;SDS011;29279;50.858;4.392;2023-11-21T06:59:49;57.70;;;28.17;;
43678;SDS011;29279;50.858;4.392;2023-11-21T07:02:17;60.25;;;29.80;;
43678;SDS011;29279;50.858;4.392;2023-11-21T07:04:44;65.32;;;30.73;;
43678;SDS011;29279;50.858;4.392;2023-11-21T07:07:11;61.90;;;30.08;;
43678;SDS011;29279;50.858;4.392;2023-11-21T07:09:37;63.53;;;28.58;;
43678;SDS011;29279;50.858;4.392;2023-11-21T07:12:02;53.15;;;27.58;;
43678;SDS011;29279;50.858;4.392;2023-11-21T07:14:31;54.00;;;27.70;;
43678;SDS011;29279;50.858;4.392;2023-11-21T07:16:57;52.05;;;28.80;;
43678;SDS011;29279;50.858;4.392;2023-11-21T07:19:22;51.85;;;27.52;;
43678;SDS011;29279;50.858;4.392;2023-11-21T07:21:48;54.17;;;28.35;;
43678;SDS011;29279;50.858;4.392;2023-11-21T07:24:17;52.30;;;29.10;;
43678;SDS011;29279;50.858;4.392;2023-11-21T07:26:42;54.17;;;28.73;;
43678;SDS011;29279;50.858;4.392;2023-11-21T07:29:08;59.33;;;29.85;;
43678;SDS011;29279;50.858;4.392;2023-11-21T07:31:34;66.10;;;31.40;;
43678;SDS011;29279;50.858;4.392;2023-11-21T07:34:00;55.63;;;30.50;;
43678;SDS011;29279;50.858;4.392;2023-11-21T07:36:26;60.58;;;31.83;;
43678;SDS011;29279;50.858;4.392;2023-11-21T07:38:52;68.40;;;31.77;;
43678;SDS011;29279;50.858;4.392;2023-11-21T07:41:19;65.63;;;32.55;;
43678;SDS011;29279;50.858;4.392;2023-11-21T07:43:45;65.90;;;31.98;;
43678;SDS011;29279;50.858;4.392;2023-11-21T07:46:12;68.18;;;34.33;;
43678;SDS011;29279;50.858;4.392;2023-11-21T07:48:38;77.15;;;34.15;;
43678;SDS011;29279;50.858;4.392;2023-11-21T07:51:04;77.15;;;33.30;;
43678;SDS011;29279;50.858;4.392;2023-11-21T07:53:31;70.10;;;34.95;;
43678;SDS011;29279;50.858;4.392;2023-11-21T07:56:07;72.47;;;33.08;;
43678;SDS011;29279;50.858;4.392;2023-11-21T07:58:34;74.45;;;33.10;;
43678;SDS011;29279;50.858;4.392;2023-11-21T08:01:03;64.60;;;32.15;;
43678;SDS011;29279;50.858;4.392;2023-11-21T08:03:29;69.45;;;34.88;;
43678;SDS011;29279;50.858;4.392;2023-11-21T08:05:56;77.45;;;33.75;;
43678;SDS011;29279;50.858;4.392;2023-11-21T08:08:22;72.82;;;32.90;;
43678;SDS011;29279;50.858;4.392;2023-11-21T08:10:48;81.78;;;36.22;;
43678;SDS011;29279;50.858;4.392;2023-11-21T08:13:21;89.55;;;35.85;;
43678;SDS011;29279;50.858;4.392;2023-11-21T08:15:50;79.03;;;33.53;;
43678;SDS011;29279;50.858;4.392;2023-11-21T08:18:19;77.97;;;35.10;;
43678;SDS011;29279;50.858;4.392;2023-11-21T08:20:44;81.97;;;34.75;;
43678;SDS011;29279;50.858;4.392;2023-11-21T08:23:13;85.75;;;35.50;;
43678;SDS011;29279;50.858;4.392;2023-11-21T08:25:42;87.18;;;35.83;;
43678;SDS011;29279;50.858;4.392;2023-11-21T08:28:09;82.50;;;35.17;;
43678;SDS011;29279;50.858;4.392;2023-11-21T08:30:35;82.65;;;36.50;;
43678;SDS011;29279;50.858;4.392;2023-11-21T08:33:01;77.28;;;33.90;;
43678;SDS011;29279;50.858;4.392;2023-11-21T08:35:28;79.60;;;35.03;;
43678;SDS011;29279;50.858;4.392;2023-11-21T08:37:53;85.47;;;37.00;;
43678;SDS011;29279;50.858;4.392;2023-11-21T08:40:20;95.28;;;36.67;;
43678;SDS011;29279;50.858;4.392;2023-11-21T08:42:46;87.00;;;35.10;;
43678;SDS011;29279;50.858;4.392;2023-11-21T08:45:13;92.95;;;36.88;;
43678;SDS011;29279;50.858;4.392;2023-11-21T08:47:42;93.45;;;34.78;;
43678;SDS011;29279;50.858;4.392;2023-11-21T08:50:12;94.60;;;35.90;;
43678;SDS011;29279;50.858;4.392;2023-11-21T08:52:41;95.50;;;35.97;;
43678;SDS011;29279;50.858;4.392;2023-11-21T08:55:10;103.55;;;36.97;;
43678;SDS011;29279;50.858;4.392;2023-11-21T08:57:37;93.15;;;34.92;;
43678;SDS011;29279;50.858;4.392;2023-11-21T09:00:06;93.50;;;35.08;;
43678;SDS011;29279;50.858;4.392;2023-11-21T09:02:44;104.97;;;35.53;;
43678;SDS011;29279;50.858;4.392;2023-11-21T09:05:11;90.20;;;35.13;;
43678;SDS011;29279;50.858;4.392;2023-11-21T09:07:38;96.25;;;35.50;;
43678;SDS011;29279;50.858;4.392;2023-11-21T09:10:06;105.47;;;35.63;;
43678;SDS011;29279;50.858;4.392;2023-11-21T09:12:34;102.25;;;36.00;;
43678;SDS011;29279;50.858;4.392;2023-11-21T09:15:04;112.35;;;37.35;;
43678;SDS011;29279;50.858;4.392;2023-11-21T09:17:31;111.55;;;38.30;;
43678;SDS011;29279;50.858;4.392;2023-11-21T09:19:59;112.65;;;36.17;;
43678;SDS011;29279;50.858;4.392;2023-11-21T09:22:25;131.32;;;41.15;;
43678;SDS011;29279;50.858;4.392;2023-11-21T09:24:52;132.90;;;40.42;;
43678;SDS011;29279;50.858;4.392;2023-11-21T09:27:17;119.05;;;37.72;;
43678;SDS011;29279;50.858;4.392;2023-11-21T09:29:44;107.63;;;37.90;;
43678;SDS011;29279;50.858;4.392;2023-11-21T09:32:09;127.72;;;40.17;;
43678;SDS011;29279;50.858;4.392;2023-11-21T09:34:39;107.43;;;37.78;;
43678;SDS011;29279;50.858;4.392;2023-11-21T09:37:05;96.95;;;36.42;;
43678;SDS011;29279;50.858;4.392;2023-11-21T09:39:32;99.10;;;33.83;;
43678;SDS011;29279;50.858;4.392;2023-11-21T09:42:04;95.47;;;35.85;;
43678;SDS011;29279;50.858;4.392;2023-11-21T09:47:38;100.57;;;35.28;;
43678;SDS011;29279;50.858;4.392;2023-11-21T09:50:04;96.78;;;34.35;;
43678;SDS011;29279;50.858;4.392;2023-11-21T09:52:33;85.63;;;34.10;;
43678;SDS011;29279;50.858;4.392;2023-11-21T09:55:24;81.18;;;32.45;;
43678;SDS011;29279;50.858;4.392;2023-11-21T09:57:54;93.70;;;30.45;;
43678;SDS011;29279;50.858;4.392;2023-11-21T10:00:22;101.88;;;35.42;;
43678;SDS011;29279;50.858;4.392;2023-11-21T10:02:49;76.07;;;30.80;;
43678;SDS011;29279;50.858;4.392;2023-11-21T10:05:16;81.07;;;31.08;;
43678;SDS011;29279;50.858;4.392;2023-11-21T10:07:45;70.00;;;28.92;;
43678;SDS011;29279;50.858;4.392;2023-11-21T10:10:12;67.90;;;28.73;;
43678;SDS011;29279;50.858;4.392;2023-11-21T10:12:40;64.40;;;26.35;;
43678;SDS011;29279;50.858;4.392;2023-11-21T10:15:07;50.78;;;25.52;;
43678;SDS011;29279;50.858;4.392;2023-11-21T10:17:36;55.25;;;25.48;;
43678;SDS011;29279;50.858;4.392;2023-11-21T10:20:08;45.95;;;24.80;;
43678;SDS011;29279;50.858;4.392;2023-11-21T10:22:41;48.58;;;24.77;;
43678;SDS011;29279;50.858;4.392;2023-11-21T10:25:08;43.20;;;22.90;;
43678;SDS011;29279;50.858;4.392;2023-11-21T10:27:35;43.47;;;23.52;;
43678;SDS011;29279;50.858;4.392;2023-11-21T10:30:04;38.85;;;22.60;;
43678;SDS011;29279;50.858;4.392;2023-11-21T10:32:30;41.85;;;23.70;;
43678;SDS011;29279;50.858;4.392;2023-11-21T10:34:59;42.38;;;24.55;;
43678;SDS011;29279;50.858;4.392;2023-11-21T10:39:58;37.25;;;21.83;;
43678;SDS011;29279;50.858;4.392;2023-11-21T10:42:24;40.30;;;21.98;;
43678;SDS011;29279;50.858;4.392;2023-11-21T10:44:50;47.70;;;24.17;;
43678;SDS011;29279;50.858;4.392;2023-11-21T10:47:17;36.67;;;21.08;;
43678;SDS011;29279;50.858;4.392;2023-11-21T10:49:44;45.88;;;23.08;;
43678;SDS011;29279;50.858;4.392;2023-11-21T10:52:12;38.20;;;22.38;;
43678;SDS011;29279;50.858;4.392;2023-11-21T10:54:42;45.92;;;22.17;;
43678;SDS011;29279;50.858;4.392;2023-11-21T10:57:08;42.17;;;23.85;;
43678;SDS011;29279;50.858;4.392;2023-11-21T10:59:36;38.35;;;21.95;;
43678;SDS011;29279;50.858;4.392;2023-11-21T11:02:05;43.00;;;22.85;;
43678;SDS011;29279;50.858;4.392;2023-11-21T11:04:57;47.28;;;23.67;;
43678;SDS011;29279;50.858;4.392;2023-11-21T11:07:26;49.28;;;26.17;;
43678;SDS011;29279;50.858;4.392;2023-11-21T11:09:56;40.47;;;23.48;;
43678;SDS011;29279;50.858;4.392;2023-11-21T11:12:24;43.88;;;23.63;;
43678;SDS011;29279;50.858;4.392;2023-11-21T11:14:51;45.92;;;25.58;;
43678;SDS011;29279;50.858;4.392;2023-11-21T11:17:18;50.15;;;25.98;;
43678;SDS011;29279;50.858;4.392;2023-11-21T11:19:46;51.05;;;27.52;;
43678;SDS011;29279;50.858;4.392;2023-11-21T11:27:54;48.80;;;27.10;;
43678;SDS011;29279;50.858;4.392;2023-11-21T11:36:05;52.22;;;27.27;;
43678;SDS011;29279;50.858;4.392;2023-11-21T11:38:36;55.33;;;29.83;;
43678;SDS011;29279;50.858;4.392;2023-11-21T11:41:03;51.97;;;29.50;;
43678;SDS011;29279;50.858;4.392;2023-11-21T11:43:29;53.33;;;29.98;;
43678;SDS011;29279;50.858;4.392;2023-11-21T11:45:58;53.03;;;30.83;;
43678;SDS011;29279;50.858;4.392;2023-11-21T11:48:25;49.63;;;30.00;;
43678;SDS011;29279;50.858;4.392;2023-11-21T11:53:43;53.67;;;31.77;;
43678;SDS011;29279;50.858;4.392;2023-11-21T11:58:47;49.38;;;27.73;;
43678;SDS011;29279;50.858;4.392;2023-11-21T12:01:13;53.67;;;30.52;;
43678;SDS011;29279;50.858;4.392;2023-11-21T12:03:41;46.42;;;29.70;;
43678;SDS011;29279;50.858;4.392;2023-11-21T12:06:07;40.20;;;24.98;;
43678;SDS011;29279;50.858;4.392;2023-11-21T12:08:34;34.50;;;22.75;;
43678;SDS011;29279;50.858;4.392;2023-11-21T12:11:01;31.65;;;22.77;;
43678;SDS011;29279;50.858;4.392;2023-11-21T12:13:27;41.85;;;22.70;;
43678;SDS011;29279;50.858;4.392;2023-11-21T12:15:53;41.50;;;22.52;;
43678;SDS011;29279;50.858;4.392;2023-11-21T12:18:20;36.55;;;21.67;;
43678;SDS011;29279;50.858;4.392;2023-11-21T12:20:46;35.63;;;21.73;;
43678;SDS011;29279;50.858;4.392;2023-11-21T12:23:13;34.88;;;18.35;;
43678;SDS011;29279;50.858;4.392;2023-11-21T12:25:41;29.48;;;19.15;;
43678;SDS011;29279;50.858;4.392;2023-11-21T12:28:08;25.98;;;18.25;;
43678;SDS011;29279;50.858;4.392;2023-11-21T12:30:34;28.75;;;16.00;;
43678;SDS011;29279;50.858;4.392;2023-11-21T12:33:01;24.70;;;16.40;;
43678;SDS011;29279;50.858;4.392;2023-11-21T12:35:29;20.00;;;13.63;;
43678;SDS011;29279;50.858;4.392;2023-11-21T12:37:56;23.38;;;15.07;;
43678;SDS011;29279;50.858;4.392;2023-11-21T12:40:22;19.35;;;13.25;;
43678;SDS011;29279;50.858;4.392;2023-11-21T12:42:49;22.40;;;14.38;;
43678;SDS011;29279;50.858;4.392;2023-11-21T12:47:52;21.80;;;14.15;;
43678;SDS011;29279;50.858;4.392;2023-11-21T12:50:33;26.35;;;15.02;;
43678;SDS011;29279;50.858;4.392;2023-11-21T12:53:02;20.95;;;13.38;;
43678;SDS011;29279;50.858;4.392;2023-11-21T12:55:33;21.17;;;13.55;;
43678;SDS011;29279;50.858;4.392;2023-11-21T12:58:07;25.40;;;14.15;;
43678;SDS011;29279;50.858;4.392;2023-11-21T13:00:35;20.00;;;13.15;;
43678;SDS011;29279;50.858;4.392;2023-11-21T13:03:05;21.23;;;13.60;;
43678;SDS011;29279;50.858;4.392;2023-11-21T13:05:33;30.30;;;16.30;;
43678;SDS011;29279;50.858;4.392;2023-11-21T13:08:01;28.35;;;15.27;;
43678;SDS011;29279;50.858;4.392;2023-11-21T13:10:29;22.35;;;13.48;;
43678;SDS011;29279;50.858;4.392;2023-11-21T13:12:59;23.70;;;14.02;;
43678;SDS011;29279;50.858;4.392;2023-11-21T13:15:27;26.27;;;15.20;;
43678;SDS011;29279;50.858;4.392;2023-11-21T13:17:53;21.48;;;15.50;;
43678;SDS011;29279;50.858;4.392;2023-11-21T13:20:21;22.42;;;16.30;;
43678;SDS011;29279;50.858;4.392;2023-11-21T13:25:19;33.10;;;17.45;;
43678;SDS011;29279;50.858;4.392;2023-11-21T13:27:54;29.10;;;16.20;;
43678;SDS011;29279;50.858;4.392;2023-11-21T13:30:20;26.85;;;14.80;;
43678;SDS011;29279;50.858;4.392;2023-11-21T13:32:58;28.33;;;15.40;;
43678;SDS011;29279;50.858;4.392;2023-11-21T13:35:30;21.55;;;14.60;;
43678;SDS011;29279;50.858;4.392;2023-11-21T13:38:16;25.35;;;15.70;;
43678;SDS011;29279;50.858;4.392;2023-11-21T13:40:47;22.33;;;13.40;;
43678;SDS011;29279;50.858;4.392;2023-11-21T13:43:19;22.75;;;14.90;;
43678;SDS011;29279;50.858;4.392;2023-11-21T13:45:47;21.67;;;13.25;;
43678;SDS011;29279;50.858;4.392;2023-11-21T13:48:25;22.52;;;13.93;;
43678;SDS011;29279;50.858;4.392;2023-11-21T13:50:56;20.20;;;13.15;;
43678;SDS011;29279;50.858;4.392;2023-11-21T13:53:43;22.95;;;12.48;;
43678;SDS011;29279;50.858;4.392;2023-11-21T13:56:10;20.55;;;12.18;;
43678;SDS011;29279;50.858;4.392;2023-11-21T13:58:37;23.70;;;11.90;;
43678;SDS011;29279;50.858;4.392;2023-11-21T14:01:17;16.63;;;10.70;;
43678;SDS011;29279;50.858;4.392;2023-11-21T14:03:58;20.25;;;11.07;;
43678;SDS011;29279;50.858;4.392;2023-11-21T14:06:38;18.23;;;10.07;;
43678;SDS011;29279;50.858;4.392;2023-11-21T14:09:13;17.23;;;9.70;;
43678;SDS011;29279;50.858;4.392;2023-11-21T14:11:48;15.18;;;9.80;;
43678;SDS011;29279;50.858;4.392;2023-11-21T14:14:21;11.70;;;7.93;;
43678;SDS011;29279;50.858;4.392;2023-11-21T14:19:17;15.32;;;7.70;;
43678;SDS011;29279;50.858;4.392;2023-11-21T14:21:43;10.88;;;7.28;;
43678;SDS011;29279;50.858;4.392;2023-11-21T14:24:13;16.40;;;7.28;;
43678;SDS011;29279;50.858;4.392;2023-11-21T14:26:41;14.98;;;8.45;;
43678;SDS011;29279;50.858;4.392;2023-11-21T14:29:08;11.93;;;7.63;;
43678;SDS011;29279;50.858;4.392;2023-11-21T14:31:34;15.52;;;8.00;;
43678;SDS011;29279;50.858;4.392;2023-11-21T14:34:01;16.70;;;8.10;;
43678;SDS011;29279;50.858;4.392;2023-11-21T14:36:27;13.15;;;6.90;;
43678;SDS011;29279;50.858;4.392;2023-11-21T14:38:53;14.63;;;7.95;;
43678;SDS011;29279;50.858;4.392;2023-11-21T14:41:19;13.75;;;8.10;;
43678;SDS011;29279;50.858;4.392;2023-11-21T14:43:45;13.35;;;7.50;;
43678;SDS011;29279;50.858;4.392;2023-11-21T14:46:14;11.52;;;7.15;;
43678;SDS011;29279;50.858;4.392;2023-11-21T14:48:42;13.07;;;8.32;;
43678;SDS011;29279;50.858;4.392;2023-11-21T14:51:11;16.00;;;7.20;;
43678;SDS011;29279;50.858;4.392;2023-11-21T14:53:58;15.38;;;8.38;;